sensor_id;sensor_type;location;lat;lon;timestamp;temperature;humidity
22781;DHT22;11557;50.884;4.322;2022-12-07T00:01:42;6.90;99.90
22781;DHT22;11557;50.884;4.322;2022-12-07T00:04:13;6.90;99.90
22781;DHT22;11557;50.884;4.322;2022-12-07T00:06:41;6.00;99.90
22781;DHT22;11557;50.884;4.322;2022-12-07T00:09:11;6.50;99.90
22781;DHT22;11557;50.884;4.322;2022-12-07T00:11:37;6.30;99.90
22781;DHT22;11557;50.884;4.322;2022-12-07T00:14:06;6.80;99.90
22781;DHT22;11557;50.884;4.322;2022-12-07T00:16:34;7.20;99.90
22781;DHT22;11557;50.884;4.322;2022-12-07T00:19:00;6.50;99.90
22781;DHT22;11557;50.884;4.322;2022-12-07T00:21:28;7.20;99.90
22781;DHT22;11557;50.884;4.322;2022-12-07T00:23:54;6.90;99.90
22781;DHT22;11557;50.884;4.322;2022-12-07T00:26:32;7.70;99.90
22781;DHT22;11557;50.884;4.322;2022-12-07T00:29:00;6.50;99.90
22781;DHT22;11557;50.884;4.322;2022-12-07T00:31:29;6.40;99.90
22781;DHT22;11557;50.884;4.322;2022-12-07T00:33:56;6.50;99.90
22781;DHT22;11557;50.884;4.322;2022-12-07T00:36:24;6.80;99.90
22781;DHT22;11557;50.884;4.322;2022-12-07T00:38:50;6.60;99.90
22781;DHT22;11557;50.884;4.322;2022-12-07T00:41:18;6.60;99.90
22781;DHT22;11557;50.884;4.322;2022-12-07T00:43:45;6.60;99.90
22781;DHT22;11557;50.884;4.322;2022-12-07T00:46:11;6.30;99.90
22781;DHT22;11557;50.884;4.322;2022-12-07T00:48:37;6.30;99.90
22781;DHT22;11557;50.884;4.322;2022-12-07T00:51:04;6.20;99.90
22781;DHT22;11557;50.884;4.322;2022-12-07T00:53:30;6.30;99.90
22781;DHT22;11557;50.884;4.322;2022-12-07T00:56:07;6.80;99.90
22781;DHT22;11557;50.884;4.322;2022-12-07T00:58:33;6.40;99.90
22781;DHT22;11557;50.884;4.322;2022-12-07T01:01:04;7.00;99.90
22781;DHT22;11557;50.884;4.322;2022-12-07T01:03:30;6.50;99.90
22781;DHT22;11557;50.884;4.322;2022-12-07T01:05:56;7.30;99.90
22781;DHT22;11557;50.884;4.322;2022-12-07T01:08:25;6.40;99.90
22781;DHT22;11557;50.884;4.322;2022-12-07T01:11:04;6.60;99.90
22781;DHT22;11557;50.884;4.322;2022-12-07T01:13:32;6.50;99.90
22781;DHT22;11557;50.884;4.322;2022-12-07T01:15:59;6.90;99.90
22781;DHT22;11557;50.884;4.322;2022-12-07T01:18:27;6.20;99.90
22781;DHT22;11557;50.884;4.322;2022-12-07T01:21:07;6.30;99.90
22781;DHT22;11557;50.884;4.322;2022-12-07T01:23:34;6.20;99.90
22781;DHT22;11557;50.884;4.322;2022-12-07T01:26:04;6.80;99.90
22781;DHT22;11557;50.884;4.322;2022-12-07T01:28:31;6.20;99.90
22781;DHT22;11557;50.884;4.322;2022-12-07T01:31:12;6.90;99.90
22781;DHT22;11557;50.884;4.322;2022-12-07T01:33:40;6.60;99.90
22781;DHT22;11557;50.884;4.322;2022-12-07T01:36:27;6.40;99.90
22781;DHT22;11557;50.884;4.322;2022-12-07T01:38:58;6.20;99.90
22781;DHT22;11557;50.884;4.322;2022-12-07T01:41:27;6.60;99.90
22781;DHT22;11557;50.884;4.322;2022-12-07T01:44:10;6.20;99.90
22781;DHT22;11557;50.884;4.322;2022-12-07T01:46:36;6.90;99.90
22781;DHT22;11557;50.884;4.322;2022-12-07T01:49:04;6.50;99.90
22781;DHT22;11557;50.884;4.322;2022-12-07T01:51:31;6.70;99.90
22781;DHT22;11557;50.884;4.322;2022-12-07T01:53:57;7.40;99.90
22781;DHT22;11557;50.884;4.322;2022-12-07T01:56:25;7.30;99.90
22781;DHT22;11557;50.884;4.322;2022-12-07T01:58:53;6.70;99.90
22781;DHT22;11557;50.884;4.322;2022-12-07T02:01:19;6.60;99.90
22781;DHT22;11557;50.884;4.322;2022-12-07T02:03:45;7.00;99.90
22781;DHT22;11557;50.884;4.322;2022-12-07T02:06:14;7.80;99.90
22781;DHT22;11557;50.884;4.322;2022-12-07T02:08:42;6.70;99.90
22781;DHT22;11557;50.884;4.322;2022-12-07T02:11:09;6.60;99.90
22781;DHT22;11557;50.884;4.322;2022-12-07T02:13:37;6.40;99.90
22781;DHT22;11557;50.884;4.322;2022-12-07T02:29:35;7.20;99.90
22781;DHT22;11557;50.884;4.322;2022-12-07T02:32:26;5.90;99.90
22781;DHT22;11557;50.884;4.322;2022-12-07T02:40:21;5.90;99.90
22781;DHT22;11557;50.884;4.322;2022-12-07T02:43:07;6.40;99.90
22781;DHT22;11557;50.884;4.322;2022-12-07T02:45:35;5.90;99.90
22781;DHT22;11557;50.884;4.322;2022-12-07T02:48:02;5.70;99.90
22781;DHT22;11557;50.884;4.322;2022-12-07T02:50:29;5.50;99.90
22781;DHT22;11557;50.884;4.322;2022-12-07T02:52:55;5.50;99.90
22781;DHT22;11557;50.884;4.322;2022-12-07T02:55:26;5.30;99.90
22781;DHT22;11557;50.884;4.322;2022-12-07T02:58:46;5.90;99.90
22781;DHT22;11557;50.884;4.322;2022-12-07T03:01:20;5.30;99.90
22781;DHT22;11557;50.884;4.322;2022-12-07T03:04:09;5.30;99.90
22781;DHT22;11557;50.884;4.322;2022-12-07T03:06:46;5.70;99.90
22781;DHT22;11557;50.884;4.322;2022-12-07T03:09:41;5.60;99.90
22781;DHT22;11557;50.884;4.322;2022-12-07T03:12:14;5.60;99.90
22781;DHT22;11557;50.884;4.322;2022-12-07T03:14:47;6.40;99.90
22781;DHT22;11557;50.884;4.322;2022-12-07T03:17:22;6.10;99.90
22781;DHT22;11557;50.884;4.322;2022-12-07T03:19:49;6.00;99.90
22781;DHT22;11557;50.884;4.322;2022-12-07T03:22:17;6.00;99.90
22781;DHT22;11557;50.884;4.322;2022-12-07T03:24:46;6.00;99.90
22781;DHT22;11557;50.884;4.322;2022-12-07T03:27:13;7.50;99.90
22781;DHT22;11557;50.884;4.322;2022-12-07T03:30:06;6.20;99.90
22781;DHT22;11557;50.884;4.322;2022-12-07T03:32:43;6.20;99.90
22781;DHT22;11557;50.884;4.322;2022-12-07T03:35:37;6.30;99.90
22781;DHT22;11557;50.884;4.322;2022-12-07T03:38:20;6.90;99.90
22781;DHT22;11557;50.884;4.322;2022-12-07T03:41:29;6.20;99.90
22781;DHT22;11557;50.884;4.322;2022-12-07T03:43:47;5.90;99.90
22781;DHT22;11557;50.884;4.322;2022-12-07T03:52:03;5.90;99.90
22781;DHT22;11557;50.884;4.322;2022-12-07T03:54:37;6.00;99.90
22781;DHT22;11557;50.884;4.322;2022-12-07T03:57:05;5.90;99.90
22781;DHT22;11557;50.884;4.322;2022-12-07T03:59:33;7.00;99.90
22781;DHT22;11557;50.884;4.322;2022-12-07T04:02:04;6.40;99.90
22781;DHT22;11557;50.884;4.322;2022-12-07T04:04:30;5.80;99.90
22781;DHT22;11557;50.884;4.322;2022-12-07T04:06:56;7.00;99.90
22781;DHT22;11557;50.884;4.322;2022-12-07T04:09:21;5.90;99.90
22781;DHT22;11557;50.884;4.322;2022-12-07T04:11:47;6.50;99.90
22781;DHT22;11557;50.884;4.322;2022-12-07T04:14:13;5.80;99.90
22781;DHT22;11557;50.884;4.322;2022-12-07T04:16:50;6.10;99.90
22781;DHT22;11557;50.884;4.322;2022-12-07T04:19:18;5.70;99.90
22781;DHT22;11557;50.884;4.322;2022-12-07T04:21:44;5.70;99.90
22781;DHT22;11557;50.884;4.322;2022-12-07T04:24:11;6.30;99.90
22781;DHT22;11557;50.884;4.322;2022-12-07T04:26:36;6.00;99.90
22781;DHT22;11557;50.884;4.322;2022-12-07T04:29:02;5.70;99.90
22781;DHT22;11557;50.884;4.322;2022-12-07T04:31:28;6.20;99.90
22781;DHT22;11557;50.884;4.322;2022-12-07T04:33:54;5.70;99.90
22781;DHT22;11557;50.884;4.322;2022-12-07T04:36:19;5.60;99.90
22781;DHT22;11557;50.884;4.322;2022-12-07T04:38:46;6.40;99.90
22781;DHT22;11557;50.884;4.322;2022-12-07T04:41:12;5.90;99.90
22781;DHT22;11557;50.884;4.322;2022-12-07T04:43:37;5.70;99.90
22781;DHT22;11557;50.884;4.322;2022-12-07T04:46:03;6.50;99.90
22781;DHT22;11557;50.884;4.322;2022-12-07T04:48:29;5.90;99.90
22781;DHT22;11557;50.884;4.322;2022-12-07T04:50:55;6.20;99.90
22781;DHT22;11557;50.884;4.322;2022-12-07T04:53:21;6.30;99.90
22781;DHT22;11557;50.884;4.322;2022-12-07T04:55:47;7.20;99.90
22781;DHT22;11557;50.884;4.322;2022-12-07T04:58:13;6.20;99.90
22781;DHT22;11557;50.884;4.322;2022-12-07T05:00:39;6.40;99.90
22781;DHT22;11557;50.884;4.322;2022-12-07T05:03:05;5.90;99.90
22781;DHT22;11557;50.884;4.322;2022-12-07T05:05:31;6.80;99.90
22781;DHT22;11557;50.884;4.322;2022-12-07T05:07:56;5.70;99.90
22781;DHT22;11557;50.884;4.322;2022-12-07T05:10:22;6.00;99.90
22781;DHT22;11557;50.884;4.322;2022-12-07T05:12:48;6.10;99.90
22781;DHT22;11557;50.884;4.322;2022-12-07T05:15:14;6.60;99.90
22781;DHT22;11557;50.884;4.322;2022-12-07T05:17:40;5.90;99.90
22781;DHT22;11557;50.884;4.322;2022-12-07T05:20:07;6.30;99.90
22781;DHT22;11557;50.884;4.322;2022-12-07T05:22:33;6.00;99.90
22781;DHT22;11557;50.884;4.322;2022-12-07T05:24:59;6.00;99.90
22781;DHT22;11557;50.884;4.322;2022-12-07T05:27:25;6.40;99.90
22781;DHT22;11557;50.884;4.322;2022-12-07T05:29:51;5.90;99.90
22781;DHT22;11557;50.884;4.322;2022-12-07T05:32:17;5.80;99.90
22781;DHT22;11557;50.884;4.322;2022-12-07T05:34:43;5.70;99.90
22781;DHT22;11557;50.884;4.322;2022-12-07T05:37:08;6.50;99.90
22781;DHT22;11557;50.884;4.322;2022-12-07T05:39:34;5.90;99.90
22781;DHT22;11557;50.884;4.322;2022-12-07T05:42:00;5.80;99.90
22781;DHT22;11557;50.884;4.322;2022-12-07T05:44:43;6.90;99.90
22781;DHT22;11557;50.884;4.322;2022-12-07T05:47:09;6.40;99.90
22781;DHT22;11557;50.884;4.322;2022-12-07T05:49:35;6.70;99.90
22781;DHT22;11557;50.884;4.322;2022-12-07T05:52:00;6.40;99.90
22781;DHT22;11557;50.884;4.322;2022-12-07T05:54:26;6.40;99.90
22781;DHT22;11557;50.884;4.322;2022-12-07T05:56:52;5.90;99.90
22781;DHT22;11557;50.884;4.322;2022-12-07T05:59:17;6.70;99.90
22781;DHT22;11557;50.884;4.322;2022-12-07T06:02:01;5.80;99.90
22781;DHT22;11557;50.884;4.322;2022-12-07T06:04:30;6.50;99.90
22781;DHT22;11557;50.884;4.322;2022-12-07T06:06:56;6.10;99.90
22781;DHT22;11557;50.884;4.322;2022-12-07T06:09:24;6.80;99.90
22781;DHT22;11557;50.884;4.322;2022-12-07T06:11:50;6.00;99.90
22781;DHT22;11557;50.884;4.322;2022-12-07T06:14:34;7.00;99.90
22781;DHT22;11557;50.884;4.322;2022-12-07T06:17:00;7.00;99.90
22781;DHT22;11557;50.884;4.322;2022-12-07T06:19:26;6.10;99.90
22781;DHT22;11557;50.884;4.322;2022-12-07T06:21:51;6.30;99.90
22781;DHT22;11557;50.884;4.322;2022-12-07T06:24:18;7.30;99.90
22781;DHT22;11557;50.884;4.322;2022-12-07T06:26:44;6.10;99.90
22781;DHT22;11557;50.884;4.322;2022-12-07T06:29:10;6.50;99.90
22781;DHT22;11557;50.884;4.322;2022-12-07T06:31:36;6.60;99.90
22781;DHT22;11557;50.884;4.322;2022-12-07T06:34:04;6.10;99.90
22781;DHT22;11557;50.884;4.322;2022-12-07T06:36:31;6.30;99.90
22781;DHT22;11557;50.884;4.322;2022-12-07T06:38:56;6.50;99.90
22781;DHT22;11557;50.884;4.322;2022-12-07T06:41:23;6.30;99.90
22781;DHT22;11557;50.884;4.322;2022-12-07T06:43:50;7.20;99.90
22781;DHT22;11557;50.884;4.322;2022-12-07T06:46:16;6.10;99.90
22781;DHT22;11557;50.884;4.322;2022-12-07T06:48:42;6.80;99.90
22781;DHT22;11557;50.884;4.322;2022-12-07T06:51:09;6.50;99.90
22781;DHT22;11557;50.884;4.322;2022-12-07T06:53:35;6.30;99.90
22781;DHT22;11557;50.884;4.322;2022-12-07T06:56:01;6.50;99.90
22781;DHT22;11557;50.884;4.322;2022-12-07T06:58:27;6.10;99.90
22781;DHT22;11557;50.884;4.322;2022-12-07T07:00:53;6.70;99.90
22781;DHT22;11557;50.884;4.322;2022-12-07T07:03:18;6.20;99.90
22781;DHT22;11557;50.884;4.322;2022-12-07T07:05:44;6.20;99.90
22781;DHT22;11557;50.884;4.322;2022-12-07T07:08:11;7.00;99.90
22781;DHT22;11557;50.884;4.322;2022-12-07T07:10:37;6.50;99.90
22781;DHT22;11557;50.884;4.322;2022-12-07T07:13:03;7.00;99.90
22781;DHT22;11557;50.884;4.322;2022-12-07T07:15:30;7.00;99.90
22781;DHT22;11557;50.884;4.322;2022-12-07T07:17:56;6.80;99.90
22781;DHT22;11557;50.884;4.322;2022-12-07T07:20:22;6.60;99.90
22781;DHT22;11557;50.884;4.322;2022-12-07T07:22:48;7.60;99.90
22781;DHT22;11557;50.884;4.322;2022-12-07T07:25:14;6.50;99.90
22781;DHT22;11557;50.884;4.322;2022-12-07T07:27:40;6.40;99.90
22781;DHT22;11557;50.884;4.322;2022-12-07T07:30:06;6.50;99.90
22781;DHT22;11557;50.884;4.322;2022-12-07T07:32:32;6.50;99.90
22781;DHT22;11557;50.884;4.322;2022-12-07T07:34:58;7.00;99.90
22781;DHT22;11557;50.884;4.322;2022-12-07T07:37:23;6.50;99.90
22781;DHT22;11557;50.884;4.322;2022-12-07T07:39:49;6.50;99.90
22781;DHT22;11557;50.884;4.322;2022-12-07T07:42:15;6.70;99.90
22781;DHT22;11557;50.884;4.322;2022-12-07T07:44:40;6.80;99.90
22781;DHT22;11557;50.884;4.322;2022-12-07T07:47:06;6.40;99.90
22781;DHT22;11557;50.884;4.322;2022-12-07T07:49:32;6.40;99.90
22781;DHT22;11557;50.884;4.322;2022-12-07T07:51:57;6.70;99.90
22781;DHT22;11557;50.884;4.322;2022-12-07T07:54:23;6.30;99.90
22781;DHT22;11557;50.884;4.322;2022-12-07T07:56:50;5.90;99.90
22781;DHT22;11557;50.884;4.322;2022-12-07T07:59:15;6.00;99.90
22781;DHT22;11557;50.884;4.322;2022-12-07T08:01:41;5.90;99.90
22781;DHT22;11557;50.884;4.322;2022-12-07T08:04:07;6.50;99.90
22781;DHT22;11557;50.884;4.322;2022-12-07T08:06:33;6.00;99.90
22781;DHT22;11557;50.884;4.322;2022-12-07T08:08:58;6.30;99.90
22781;DHT22;11557;50.884;4.322;2022-12-07T08:11:24;6.60;99.90
22781;DHT22;11557;50.884;4.322;2022-12-07T08:13:50;7.50;99.90
22781;DHT22;11557;50.884;4.322;2022-12-07T08:16:16;7.60;99.90
22781;DHT22;11557;50.884;4.322;2022-12-07T08:18:42;6.70;99.90
22781;DHT22;11557;50.884;4.322;2022-12-07T08:21:12;6.70;99.90
22781;DHT22;11557;50.884;4.322;2022-12-07T08:23:38;7.10;99.90
22781;DHT22;11557;50.884;4.322;2022-12-07T08:26:06;7.70;99.90
22781;DHT22;11557;50.884;4.322;2022-12-07T08:28:32;6.10;99.90
22781;DHT22;11557;50.884;4.322;2022-12-07T08:31:03;7.00;99.90
22781;DHT22;11557;50.884;4.322;2022-12-07T08:33:29;6.40;99.90
22781;DHT22;11557;50.884;4.322;2022-12-07T08:35:54;6.60;99.90
22781;DHT22;11557;50.884;4.322;2022-12-07T08:38:21;7.40;99.90
22781;DHT22;11557;50.884;4.322;2022-12-07T08:40:54;5.70;99.90
22781;DHT22;11557;50.884;4.322;2022-12-07T08:43:21;6.40;99.90
22781;DHT22;11557;50.884;4.322;2022-12-07T08:45:50;6.70;99.90
22781;DHT22;11557;50.884;4.322;2022-12-07T08:48:19;5.90;99.90
22781;DHT22;11557;50.884;4.322;2022-12-07T08:50:47;6.20;99.90
22781;DHT22;11557;50.884;4.322;2022-12-07T08:53:13;6.50;99.90
22781;DHT22;11557;50.884;4.322;2022-12-07T08:55:39;6.70;99.90
22781;DHT22;11557;50.884;4.322;2022-12-07T08:58:05;6.80;99.90
22781;DHT22;11557;50.884;4.322;2022-12-07T09:00:30;7.20;99.90
22781;DHT22;11557;50.884;4.322;2022-12-07T09:02:56;8.10;99.90
22781;DHT22;11557;50.884;4.322;2022-12-07T09:05:21;7.20;99.90
22781;DHT22;11557;50.884;4.322;2022-12-07T09:07:54;6.60;99.90
22781;DHT22;11557;50.884;4.322;2022-12-07T09:10:20;6.70;99.90
22781;DHT22;11557;50.884;4.322;2022-12-07T09:12:46;6.60;99.90
22781;DHT22;11557;50.884;4.322;2022-12-07T09:15:11;7.40;99.90
22781;DHT22;11557;50.884;4.322;2022-12-07T09:17:37;6.60;99.90
22781;DHT22;11557;50.884;4.322;2022-12-07T09:20:05;6.30;99.90
22781;DHT22;11557;50.884;4.322;2022-12-07T09:22:31;6.10;99.90
22781;DHT22;11557;50.884;4.322;2022-12-07T09:24:58;6.30;99.90
22781;DHT22;11557;50.884;4.322;2022-12-07T09:27:24;6.80;99.90
22781;DHT22;11557;50.884;4.322;2022-12-07T09:29:50;6.50;99.90
22781;DHT22;11557;50.884;4.322;2022-12-07T09:32:15;7.30;99.90
22781;DHT22;11557;50.884;4.322;2022-12-07T09:34:41;6.50;99.90
22781;DHT22;11557;50.884;4.322;2022-12-07T09:37:07;7.10;99.90
22781;DHT22;11557;50.884;4.322;2022-12-07T09:39:32;6.40;99.90
22781;DHT22;11557;50.884;4.322;2022-12-07T09:41:59;7.40;99.90
22781;DHT22;11557;50.884;4.322;2022-12-07T09:44:28;6.60;99.90
22781;DHT22;11557;50.884;4.322;2022-12-07T09:46:54;6.80;99.90
22781;DHT22;11557;50.884;4.322;2022-12-07T09:49:23;7.00;99.90
22781;DHT22;11557;50.884;4.322;2022-12-07T09:52:26;6.90;99.90
22781;DHT22;11557;50.884;4.322;2022-12-07T09:54:53;7.10;99.90
22781;DHT22;11557;50.884;4.322;2022-12-07T09:57:30;8.20;99.90
22781;DHT22;11557;50.884;4.322;2022-12-07T10:00:00;7.20;99.90
22781;DHT22;11557;50.884;4.322;2022-12-07T10:05:01;7.20;99.90
22781;DHT22;11557;50.884;4.322;2022-12-07T10:07:26;7.10;99.90
22781;DHT22;11557;50.884;4.322;2022-12-07T10:09:52;7.40;99.90
22781;DHT22;11557;50.884;4.322;2022-12-07T10:12:18;7.10;99.90
22781;DHT22;11557;50.884;4.322;2022-12-07T10:15:01;7.10;99.90
22781;DHT22;11557;50.884;4.322;2022-12-07T10:17:36;6.90;99.90
22781;DHT22;11557;50.884;4.322;2022-12-07T10:22:59;6.60;99.90
22781;DHT22;11557;50.884;4.322;2022-12-07T10:25:30;6.50;99.90
22781;DHT22;11557;50.884;4.322;2022-12-07T10:28:08;6.80;99.90
22781;DHT22;11557;50.884;4.322;2022-12-07T10:33:36;7.40;99.90
22781;DHT22;11557;50.884;4.322;2022-12-07T10:36:23;7.60;99.90
22781;DHT22;11557;50.884;4.322;2022-12-07T10:38:59;7.30;99.90
22781;DHT22;11557;50.884;4.322;2022-12-07T10:41:25;7.90;99.90
22781;DHT22;11557;50.884;4.322;2022-12-07T10:43:53;7.30;99.90
22781;DHT22;11557;50.884;4.322;2022-12-07T10:52:18;7.20;99.90
22781;DHT22;11557;50.884;4.322;2022-12-07T11:00:19;7.30;99.90
22781;DHT22;11557;50.884;4.322;2022-12-07T11:18:32;7.40;99.90
22781;DHT22;11557;50.884;4.322;2022-12-07T11:21:08;7.20;99.90
22781;DHT22;11557;50.884;4.322;2022-12-07T11:26:16;6.70;99.90
22781;DHT22;11557;50.884;4.322;2022-12-07T11:34:10;6.90;99.90
22781;DHT22;11557;50.884;4.322;2022-12-07T11:36:43;7.00;99.90
22781;DHT22;11557;50.884;4.322;2022-12-07T11:41:49;7.70;99.90
22781;DHT22;11557;50.884;4.322;2022-12-07T11:44:36;7.40;99.90
22781;DHT22;11557;50.884;4.322;2022-12-07T11:47:06;7.60;99.90
22781;DHT22;11557;50.884;4.322;2022-12-07T11:49:42;7.70;99.90
22781;DHT22;11557;50.884;4.322;2022-12-07T11:54:52;8.10;99.90
22781;DHT22;11557;50.884;4.322;2022-12-07T11:57:24;8.80;99.90
22781;DHT22;11557;50.884;4.322;2022-12-07T11:59:57;7.90;99.90
22781;DHT22;11557;50.884;4.322;2022-12-07T12:02:32;8.80;99.90
22781;DHT22;11557;50.884;4.322;2022-12-07T12:05:22;8.10;99.90
22781;DHT22;11557;50.884;4.322;2022-12-07T12:07:57;8.00;99.90
22781;DHT22;11557;50.884;4.322;2022-12-07T12:14:02;7.70;99.90
22781;DHT22;11557;50.884;4.322;2022-12-07T12:22:17;8.30;99.90
22781;DHT22;11557;50.884;4.322;2022-12-07T12:24:46;7.80;99.90
22781;DHT22;11557;50.884;4.322;2022-12-07T12:27:45;8.50;99.90
22781;DHT22;11557;50.884;4.322;2022-12-07T12:33:25;7.60;99.90
22781;DHT22;11557;50.884;4.322;2022-12-07T12:46:54;8.10;99.90
22781;DHT22;11557;50.884;4.322;2022-12-07T12:51:57;7.80;99.90
22781;DHT22;11557;50.884;4.322;2022-12-07T12:56:52;8.70;99.90
22781;DHT22;11557;50.884;4.322;2022-12-07T13:05:20;7.90;99.90
22781;DHT22;11557;50.884;4.322;2022-12-07T13:10:34;8.20;99.90
22781;DHT22;11557;50.884;4.322;2022-12-07T13:15:55;7.70;99.90
22781;DHT22;11557;50.884;4.322;2022-12-07T13:18:40;7.80;99.90
22781;DHT22;11557;50.884;4.322;2022-12-07T13:26:26;7.50;99.90
22781;DHT22;11557;50.884;4.322;2022-12-07T13:29:16;7.50;99.90
22781;DHT22;11557;50.884;4.322;2022-12-07T13:31:47;7.70;99.90
22781;DHT22;11557;50.884;4.322;2022-12-07T13:34:35;7.90;99.90
22781;DHT22;11557;50.884;4.322;2022-12-07T13:37:05;7.80;99.90
22781;DHT22;11557;50.884;4.322;2022-12-07T13:39:45;8.20;99.90
22781;DHT22;11557;50.884;4.322;2022-12-07T13:42:32;7.70;99.90
22781;DHT22;11557;50.884;4.322;2022-12-07T13:45:00;7.60;99.90
22781;DHT22;11557;50.884;4.322;2022-12-07T13:50:01;7.60;99.90
22781;DHT22;11557;50.884;4.322;2022-12-07T13:52:29;7.80;99.90
22781;DHT22;11557;50.884;4.322;2022-12-07T13:55:14;7.80;99.90
22781;DHT22;11557;50.884;4.322;2022-12-07T13:57:40;7.40;99.90
22781;DHT22;11557;50.884;4.322;2022-12-07T14:00:16;7.30;99.90
22781;DHT22;11557;50.884;4.322;2022-12-07T14:03:01;7.30;99.90
22781;DHT22;11557;50.884;4.322;2022-12-07T14:05:30;7.40;99.90
22781;DHT22;11557;50.884;4.322;2022-12-07T14:07:59;7.40;99.90
22781;DHT22;11557;50.884;4.322;2022-12-07T14:10:33;7.40;99.90
22781;DHT22;11557;50.884;4.322;2022-12-07T14:13:00;7.50;99.90
22781;DHT22;11557;50.884;4.322;2022-12-07T14:15:31;7.70;99.90
22781;DHT22;11557;50.884;4.322;2022-12-07T14:17:59;8.80;99.90
22781;DHT22;11557;50.884;4.322;2022-12-07T14:20:35;8.50;99.90
22781;DHT22;11557;50.884;4.322;2022-12-07T14:23:02;7.80;99.90
22781;DHT22;11557;50.884;4.322;2022-12-07T14:25:46;7.60;99.90
22781;DHT22;11557;50.884;4.322;2022-12-07T14:28:32;7.50;99.90
22781;DHT22;11557;50.884;4.322;2022-12-07T14:30:59;8.10;99.90
22781;DHT22;11557;50.884;4.322;2022-12-07T14:33:25;8.30;99.90
22781;DHT22;11557;50.884;4.322;2022-12-07T14:35:51;7.10;99.90
22781;DHT22;11557;50.884;4.322;2022-12-07T14:38:24;7.80;99.90
22781;DHT22;11557;50.884;4.322;2022-12-07T14:40:52;7.30;99.90
22781;DHT22;11557;50.884;4.322;2022-12-07T14:43:18;7.90;99.90
22781;DHT22;11557;50.884;4.322;2022-12-07T14:45:45;7.60;99.90
22781;DHT22;11557;50.884;4.322;2022-12-07T14:48:12;7.70;99.90
22781;DHT22;11557;50.884;4.322;2022-12-07T14:50:44;8.10;99.90
22781;DHT22;11557;50.884;4.322;2022-12-07T14:53:16;7.20;99.90
22781;DHT22;11557;50.884;4.322;2022-12-07T14:55:42;8.50;99.90
22781;DHT22;11557;50.884;4.322;2022-12-07T14:58:15;7.20;99.90
22781;DHT22;11557;50.884;4.322;2022-12-07T15:00:41;7.40;99.90
22781;DHT22;11557;50.884;4.322;2022-12-07T15:03:07;8.00;99.90
22781;DHT22;11557;50.884;4.322;2022-12-07T15:05:33;7.60;99.90
22781;DHT22;11557;50.884;4.322;2022-12-07T15:07:59;7.50;99.90
22781;DHT22;11557;50.884;4.322;2022-12-07T15:10:27;8.20;99.90
22781;DHT22;11557;50.884;4.322;2022-12-07T15:12:59;7.80;99.90
22781;DHT22;11557;50.884;4.322;2022-12-07T15:15:45;7.50;99.90
22781;DHT22;11557;50.884;4.322;2022-12-07T15:18:11;7.60;99.90
22781;DHT22;11557;50.884;4.322;2022-12-07T15:20:37;7.40;99.90
22781;DHT22;11557;50.884;4.322;2022-12-07T15:23:03;7.50;99.90
22781;DHT22;11557;50.884;4.322;2022-12-07T15:25:29;7.80;99.90
22781;DHT22;11557;50.884;4.322;2022-12-07T15:27:55;8.60;99.90
22781;DHT22;11557;50.884;4.322;2022-12-07T15:30:20;7.70;99.90
22781;DHT22;11557;50.884;4.322;2022-12-07T15:32:53;7.80;99.90
22781;DHT22;11557;50.884;4.322;2022-12-07T15:35:20;8.10;99.90
22781;DHT22;11557;50.884;4.322;2022-12-07T15:37:46;8.20;99.90
22781;DHT22;11557;50.884;4.322;2022-12-07T15:40:12;7.40;99.90
22781;DHT22;11557;50.884;4.322;2022-12-07T15:42:38;7.10;99.90
22781;DHT22;11557;50.884;4.322;2022-12-07T15:45:06;7.40;99.90
22781;DHT22;11557;50.884;4.322;2022-12-07T15:47:38;7.00;99.90
22781;DHT22;11557;50.884;4.322;2022-12-07T15:50:06;6.90;99.90
22781;DHT22;11557;50.884;4.322;2022-12-07T15:52:32;6.80;99.90
22781;DHT22;11557;50.884;4.322;2022-12-07T15:54:58;7.00;99.90
22781;DHT22;11557;50.884;4.322;2022-12-07T15:57:26;7.60;99.90
22781;DHT22;11557;50.884;4.322;2022-12-07T15:59:51;7.30;99.90
22781;DHT22;11557;50.884;4.322;2022-12-07T16:02:17;7.40;99.90
22781;DHT22;11557;50.884;4.322;2022-12-07T16:04:43;7.40;99.90
22781;DHT22;11557;50.884;4.322;2022-12-07T16:07:09;7.20;99.90
22781;DHT22;11557;50.884;4.322;2022-12-07T16:09:37;7.50;99.90
22781;DHT22;11557;50.884;4.322;2022-12-07T16:12:02;6.90;99.90
22781;DHT22;11557;50.884;4.322;2022-12-07T16:14:28;6.90;99.90
22781;DHT22;11557;50.884;4.322;2022-12-07T16:16:54;7.40;99.90
22781;DHT22;11557;50.884;4.322;2022-12-07T16:19:20;7.40;99.90
22781;DHT22;11557;50.884;4.322;2022-12-07T16:21:46;7.20;99.90
22781;DHT22;11557;50.884;4.322;2022-12-07T16:24:12;8.20;99.90
22781;DHT22;11557;50.884;4.322;2022-12-07T16:26:40;8.10;99.90
22781;DHT22;11557;50.884;4.322;2022-12-07T16:29:06;7.30;99.90
22781;DHT22;11557;50.884;4.322;2022-12-07T16:31:32;7.40;99.90
22781;DHT22;11557;50.884;4.322;2022-12-07T16:33:58;7.60;99.90
22781;DHT22;11557;50.884;4.322;2022-12-07T16:36:24;7.00;99.90
22781;DHT22;11557;50.884;4.322;2022-12-07T16:38:51;7.30;99.90
22781;DHT22;11557;50.884;4.322;2022-12-07T16:41:18;7.50;99.90
22781;DHT22;11557;50.884;4.322;2022-12-07T16:43:44;7.20;99.90
22781;DHT22;11557;50.884;4.322;2022-12-07T16:46:10;6.90;99.90
22781;DHT22;11557;50.884;4.322;2022-12-07T16:48:39;7.10;99.90
22781;DHT22;11557;50.884;4.322;2022-12-07T16:51:07;7.30;99.90
22781;DHT22;11557;50.884;4.322;2022-12-07T16:53:34;7.00;99.90
22781;DHT22;11557;50.884;4.322;2022-12-07T16:56:00;7.60;99.90
22781;DHT22;11557;50.884;4.322;2022-12-07T16:58:26;7.00;99.90
22781;DHT22;11557;50.884;4.322;2022-12-07T17:00:52;8.00;99.90
22781;DHT22;11557;50.884;4.322;2022-12-07T17:03:17;8.30;99.90
22781;DHT22;11557;50.884;4.322;2022-12-07T17:05:44;7.20;99.90
22781;DHT22;11557;50.884;4.322;2022-12-07T17:08:10;7.20;99.90
22781;DHT22;11557;50.884;4.322;2022-12-07T17:10:39;8.10;99.90
22781;DHT22;11557;50.884;4.322;2022-12-07T17:13:06;8.40;99.90
22781;DHT22;11557;50.884;4.322;2022-12-07T17:15:59;8.00;99.90
22781;DHT22;11557;50.884;4.322;2022-12-07T17:18:27;8.40;99.90
22781;DHT22;11557;50.884;4.322;2022-12-07T17:20:53;7.40;99.90
22781;DHT22;11557;50.884;4.322;2022-12-07T17:23:19;7.40;99.90
22781;DHT22;11557;50.884;4.322;2022-12-07T17:25:46;7.50;99.90
22781;DHT22;11557;50.884;4.322;2022-12-07T17:28:12;7.50;99.90
22781;DHT22;11557;50.884;4.322;2022-12-07T17:30:38;7.80;99.90
22781;DHT22;11557;50.884;4.322;2022-12-07T17:33:04;7.30;99.90
22781;DHT22;11557;50.884;4.322;2022-12-07T17:35:30;7.70;99.90
22781;DHT22;11557;50.884;4.322;2022-12-07T17:37:55;7.40;99.90
22781;DHT22;11557;50.884;4.322;2022-12-07T17:40:21;8.10;99.90
22781;DHT22;11557;50.884;4.322;2022-12-07T17:42:47;8.00;99.90
22781;DHT22;11557;50.884;4.322;2022-12-07T17:45:16;8.20;99.90
22781;DHT22;11557;50.884;4.322;2022-12-07T17:47:42;7.30;99.90
22781;DHT22;11557;50.884;4.322;2022-12-07T17:50:09;7.90;99.90
22781;DHT22;11557;50.884;4.322;2022-12-07T17:52:38;7.20;99.90
22781;DHT22;11557;50.884;4.322;2022-12-07T17:55:22;7.00;99.90
22781;DHT22;11557;50.884;4.322;2022-12-07T17:57:48;7.90;99.90
22781;DHT22;11557;50.884;4.322;2022-12-07T18:00:14;6.90;99.90